Terminal Aerodrome Forecast
Issued by NWS Tulsa, OK

Home | Current Version | Previous Version | Text Only | Print | Product List | Glossary On
Versions: 1 2 3 4 5 6 7 8 9 10 11 12 13
817
FTUS44 KTSA 062320
TAFTUL
TAF
KTUL 062320Z 0700/0724 25006KT P6SM SKC
     FM071500 23009KT P6SM SCT250
     FM071900 32012G24KT P6SM SCT250=

USA.gov is the U.S. government's official web portal to all federal, state and local government web resources and services.